KMLI

Quad City International Airport

Moline, Illinois, USA
METAR KMLI 121829Z 27020G27KT 10SM BKN025 02/M03 A2978 RMK AO2 PK WND 26029/1809 T00221028
Observed Flight Rules
Dec-12 @ 18:29 UTC (20 minutes ago) Marginal Visual Flight Rules
Wind Visibility Clouds
270° at 20 knots
 Gusting to 27 knots
10 miles
  • Broken at 2,500' AGL
Temperatures Readings
Current 2°C / 36°F
Dewpoint -3°C / 27°F
Humidity 70%
Altimeter 29.78" Hg
Pressure 1008 hPa
Elevation 184
METAR KMLI 121829Z 27020G27KT 10SM BKN025 02/M03 A2978 RMK AO2 PK WND 26029/1809 T00221028
Observed Flight Rules
Dec-12 @ 18:29 UTC
(20 minutes ago)
MVFR
Wind Visibility
270° at 20 knots
 Gusting to 27 knots
10 miles
Clouds
  • Broken at 2,500' AGL
Temperature Dewpoint
2°C / 36°F -3°C / 27°F
Humidity Altimeter Pressure
70% 29.78" Hg 1008 hPa